Weather at Kashgar Airport

Public forecast

Using degrees Celsius for public forecast. Weather courtesy of forecast.io.

Current aviation weather report (METAR) for Kashgar Airport

Retrieved 2021/04/16 16:00 UTC (36 minutes ago):

ZWSH 161600Z 33003MPS 6000 SCT040 18/01 Q1017 NOSIG

Aviation forecast (TAF) for Kashgar Airport

Retrieved 2021/04/16 12:03 UTC (5 hours ago):

TAF ZWSH 160906Z 1612/1712 07005MPS 6000 FEW033CB BKN040 TX20/1709Z TN10/1700Z BECMG 1618/1619 33005MPS BECMG 1705/1706 20004MPS